Time;durP1;ratioP1;P1;durP2;ratioP2;P2;SDS_P1;SDS_P2;PMS_P1;PMS_P2;Temp;Humidity;BMP_temperature;BMP_pressure;BME280_temperature;BME280_humidity;BME280_pressure;Samples;Min_cycle;Max_cycle;Signal;HPM_P1;HPM_P2
2022/11/02 00:01:50;;;;;;;;;;;12.70;99.90;;;;;;5009203;28;19921;-78
2022/11/02 00:04:15;;;;;;;;;;;12.70;99.90;;;;;;5015620;28;20036;-78
2022/11/02 00:06:41;;;;;;;;;;;12.60;99.90;;;;;;5015801;28;19921;-77
2022/11/02 00:09:07;;;;;;;;;;;12.60;99.90;;;;;;5016359;28;19968;-78
2022/11/02 00:11:32;;;;;;;;;;;12.60;99.90;;;;;;5015661;28;19921;-78
2022/11/02 00:13:58;;;;;;;;;;;12.90;99.90;;;;;;5015886;28;19928;-79
2022/11/02 00:16:24;;;;;;;;;;;12.60;99.90;;;;;;5017609;28;19944;-79
2022/11/02 00:18:51;;;;;;;;;;;12.50;99.90;;;;;;5014074;28;19928;-77
2022/11/02 00:21:17;;;;;;;;;;;12.80;99.90;;;;;;5015317;28;19957;-77
2022/11/02 00:23:43;;;;;;;;;;;12.50;99.90;;;;;;5014380;28;19936;-79
2022/11/02 00:26:09;;;;;;;;;;;12.50;99.90;;;;;;5012437;28;20304;-78
2022/11/02 00:28:34;;;;;;;;;;;12.70;99.90;;;;;;5020676;28;19944;-77
2022/11/02 00:31:00;;;;;;;;;;;12.50;99.90;;;;;;5025839;28;19996;-81
2022/11/02 00:33:26;;;;;;;;;;;12.40;99.90;;;;;;5027957;28;19921;-82
2022/11/02 00:35:52;;;;;;;;;;;12.40;99.90;;;;;;5028393;28;19953;-80
2022/11/02 00:38:17;;;;;;;;;;;12.30;99.90;;;;;;5018998;28;20277;-81
2022/11/02 00:40:43;;;;;;;;;;;12.20;99.90;;;;;;5020442;28;19926;-80
2022/11/02 00:43:08;;;;;;;;;;;12.10;99.90;;;;;;5022106;28;19928;-80
2022/11/02 00:45:34;;;;;;;;;;;12.00;99.90;;;;;;5023454;28;19921;-81
2022/11/02 00:48:00;;;;;;;;;;;11.90;99.90;;;;;;5027288;28;19921;-80
2022/11/02 00:50:25;;;;;;;;;;;11.90;99.90;;;;;;5020822;28;19928;-82
2022/11/02 00:52:51;;;;;;;;;;;11.80;99.90;;;;;;5019822;28;19921;-80
2022/11/02 00:55:17;;;;;;;;;;;12.50;99.90;;;;;;5023726;28;19922;-80
2022/11/02 00:57:43;;;;;;;;;;;11.80;99.90;;;;;;5020999;28;19948;-83
2022/11/02 01:00:09;;;;;;;;;;;11.70;99.90;;;;;;5025654;28;19948;-79
2022/11/02 01:02:35;;;;;;;;;;;11.60;99.90;;;;;;5024726;28;20335;-80
2022/11/02 01:05:01;;;;;;;;;;;11.60;99.90;;;;;;5010082;28;19960;-78
2022/11/02 01:07:26;;;;;;;;;;;11.60;99.90;;;;;;5030740;28;19906;-81
2022/11/02 01:09:52;;;;;;;;;;;11.50;99.90;;;;;;5031020;28;19921;-80
2022/11/02 01:12:17;;;;;;;;;;;11.60;99.90;;;;;;5028526;28;19910;-82
2022/11/02 01:14:45;;;;;;;;;;;11.60;99.90;;;;;;5034663;28;19975;-81
2022/11/02 01:17:11;;;;;;;;;;;11.50;99.90;;;;;;5035463;28;19909;-83
2022/11/02 01:19:37;;;;;;;;;;;11.40;99.90;;;;;;5028907;28;19943;-82
2022/11/02 01:22:06;;;;;;;;;;;11.70;99.90;;;;;;5034056;28;19933;-81
2022/11/02 01:24:31;;;;;;;;;;;11.40;99.90;;;;;;5031199;28;19922;-80
2022/11/02 01:26:57;;;;;;;;;;;11.30;99.90;;;;;;5001163;28;19972;-80
2022/11/02 01:29:22;;;;;;;;;;;11.30;99.90;;;;;;5029841;28;19926;-80
2022/11/02 01:31:48;;;;;;;;;;;11.30;99.90;;;;;;5028199;28;20287;-81
2022/11/02 01:34:14;;;;;;;;;;;11.20;99.90;;;;;;5020900;28;19922;-83
2022/11/02 01:36:40;;;;;;;;;;;11.20;99.90;;;;;;5014586;28;19964;-79
2022/11/02 01:39:06;;;;;;;;;;;11.70;99.90;;;;;;5013165;28;20066;-81
2022/11/02 01:41:31;;;;;;;;;;;11.30;99.90;;;;;;5015276;28;19922;-79
2022/11/02 01:43:57;;;;;;;;;;;11.00;99.90;;;;;;5020871;28;19923;-79
2022/11/02 01:46:25;;;;;;;;;;;11.00;99.90;;;;;;5020348;28;20015;-81
2022/11/02 01:49:02;;;;;;;;;;;11.10;99.90;;;;;;5019914;28;19922;-78
2022/11/02 01:51:33;;;;;;;;;;;10.90;99.90;;;;;;5017904;28;19928;-79
2022/11/02 01:54:01;;;;;;;;;;;10.90;99.90;;;;;;5017775;28;19967;-80
2022/11/02 01:56:30;;;;;;;;;;;10.90;99.90;;;;;;5020128;28;19921;-77
2022/11/02 01:58:56;;;;;;;;;;;11.30;99.90;;;;;;5018099;28;19921;-79
2022/11/02 02:01:22;;;;;;;;;;;10.90;99.90;;;;;;5017832;28;19921;-79
2022/11/02 02:03:49;;;;;;;;;;;11.00;99.90;;;;;;5016123;28;20249;-82
2022/11/02 02:06:14;;;;;;;;;;;10.90;99.90;;;;;;5018433;28;20357;-81
2022/11/02 02:08:43;;;;;;;;;;;11.00;99.90;;;;;;5028991;28;19944;-81
2022/11/02 02:11:44;;;;;;;;;;;11.00;99.90;;;;;;5029048;28;19961;-85
2022/11/02 02:14:14;;;;;;;;;;;11.00;99.90;;;;;;4953793;29;20302;-81
2022/11/02 02:16:49;;;;;;;;;;;10.90;99.90;;;;;;5008695;28;19921;-82
2022/11/02 02:19:25;;;;;;;;;;;10.80;99.90;;;;;;5017084;28;19924;-82
2022/11/02 02:21:50;;;;;;;;;;;10.80;99.90;;;;;;5026770;28;19921;-82
2022/11/02 02:24:54;;;;;;;;;;;10.70;99.90;;;;;;5013350;28;19921;-80
2022/11/02 02:27:20;;;;;;;;;;;10.80;99.90;;;;;;5002660;28;19949;-82
2022/11/02 02:29:51;;;;;;;;;;;11.00;99.90;;;;;;4966987;28;19924;-81
2022/11/02 02:32:36;;;;;;;;;;;10.70;99.90;;;;;;5000741;28;19976;-81
2022/11/02 02:35:14;;;;;;;;;;;10.70;99.90;;;;;;5016099;28;19922;-82
2022/11/02 02:38:06;;;;;;;;;;;10.70;99.90;;;;;;5000424;28;19922;-80
2022/11/02 02:40:46;;;;;;;;;;;10.70;99.90;;;;;;5023529;28;19971;-80
2022/11/02 02:43:15;;;;;;;;;;;10.70;99.90;;;;;;5034665;28;19964;-82
2022/11/02 02:45:51;;;;;;;;;;;11.80;99.90;;;;;;5031527;28;19928;-79
2022/11/02 02:48:20;;;;;;;;;;;10.70;99.90;;;;;;5025486;28;19921;-80
2022/11/02 02:50:49;;;;;;;;;;;10.90;99.90;;;;;;5030629;28;19921;-80
2022/11/02 02:53:16;;;;;;;;;;;10.80;99.90;;;;;;5028153;28;19932;-79
2022/11/02 02:55:43;;;;;;;;;;;10.70;99.90;;;;;;5029548;28;19921;-80
2022/11/02 02:58:12;;;;;;;;;;;10.70;99.90;;;;;;5013612;28;19933;-79
2022/11/02 03:00:42;;;;;;;;;;;10.70;99.90;;;;;;5007511;28;19922;-78
2022/11/02 03:03:08;;;;;;;;;;;10.70;99.90;;;;;;5011129;28;20012;-80
2022/11/02 03:05:34;;;;;;;;;;;11.10;99.90;;;;;;5013251;28;19948;-83
2022/11/02 03:08:04;;;;;;;;;;;10.80;99.90;;;;;;5013061;28;20291;-79
2022/11/02 03:10:36;;;;;;;;;;;10.80;99.90;;;;;;5019010;28;19925;-79
2022/11/02 03:13:06;;;;;;;;;;;10.80;99.90;;;;;;5012332;28;20284;-80
2022/11/02 03:15:39;;;;;;;;;;;10.80;99.90;;;;;;5014843;28;19918;-80
2022/11/02 03:18:13;;;;;;;;;;;10.70;99.90;;;;;;5017414;28;20384;-80
2022/11/02 03:20:51;;;;;;;;;;;10.70;99.90;;;;;;5005505;28;19921;-80
2022/11/02 03:23:40;;;;;;;;;;;10.60;99.90;;;;;;5014715;28;20296;-81
2022/11/02 03:26:11;;;;;;;;;;;10.60;99.90;;;;;;5008756;28;20012;-82
2022/11/02 03:28:43;;;;;;;;;;;10.50;99.90;;;;;;5016462;28;19922;-78
2022/11/02 03:31:21;;;;;;;;;;;10.60;99.90;;;;;;5016061;28;20384;-78
2022/11/02 03:33:56;;;;;;;;;;;10.50;99.90;;;;;;5014860;28;20471;-79
2022/11/02 03:36:29;;;;;;;;;;;10.50;99.90;;;;;;5016668;28;19921;-81
2022/11/02 03:39:00;;;;;;;;;;;10.50;99.90;;;;;;5016191;28;19921;-79
2022/11/02 03:41:27;;;;;;;;;;;10.40;99.90;;;;;;4998458;28;19960;-80
2022/11/02 03:43:55;;;;;;;;;;;10.70;99.90;;;;;;5011921;28;19929;-80
2022/11/02 03:46:21;;;;;;;;;;;11.10;99.90;;;;;;5008095;28;20368;-79
2022/11/02 03:48:47;;;;;;;;;;;11.00;99.90;;;;;;5000626;28;20012;-78
2022/11/02 03:51:14;;;;;;;;;;;10.30;99.90;;;;;;4981280;28;19926;-78
2022/11/02 03:53:47;;;;;;;;;;;11.20;99.90;;;;;;5004562;28;19922;-79
2022/11/02 03:56:19;;;;;;;;;;;10.30;99.90;;;;;;5015863;28;20514;-79
2022/11/02 03:58:44;;;;;;;;;;;10.30;99.90;;;;;;5026407;28;19917;-79
2022/11/02 04:01:10;;;;;;;;;;;10.90;99.90;;;;;;5031192;28;20386;-79
2022/11/02 04:03:39;;;;;;;;;;;10.00;99.90;;;;;;5024810;28;20016;-79
2022/11/02 04:06:04;;;;;;;;;;;10.20;99.90;;;;;;5020989;28;19929;-79
2022/11/02 04:08:34;;;;;;;;;;;10.20;99.90;;;;;;5024416;28;19921;-78
2022/11/02 04:16:28;;;;;;;;;;;10.20;99.90;;;;;;5026175;28;19917;-79
2022/11/02 04:21:38;;;;;;;;;;;10.20;99.90;;;;;;5024456;28;19929;-79
2022/11/02 04:26:48;;;;;;;;;;;10.20;99.90;;;;;;5018479;28;19957;-79
2022/11/02 04:29:13;;;;;;;;;;;10.20;99.90;;;;;;5028999;28;19975;-80
2022/11/02 04:31:39;;;;;;;;;;;10.30;99.90;;;;;;5025946;28;19929;-78
2022/11/02 04:34:04;;;;;;;;;;;10.30;99.90;;;;;;5024096;28;20274;-81
2022/11/02 04:36:31;;;;;;;;;;;10.60;99.90;;;;;;5020810;28;19921;-80
2022/11/02 04:38:56;;;;;;;;;;;10.40;99.90;;;;;;5029956;28;19921;-79
2022/11/02 04:41:40;;;;;;;;;;;10.40;99.90;;;;;;5019072;28;20336;-79
2022/11/02 04:44:06;;;;;;;;;;;10.40;99.90;;;;;;5023038;28;19917;-79
2022/11/02 04:46:33;;;;;;;;;;;10.90;99.90;;;;;;5017520;28;19922;-81
2022/11/02 04:48:59;;;;;;;;;;;10.40;99.90;;;;;;5031523;28;19921;-80
2022/11/02 04:51:25;;;;;;;;;;;10.60;99.90;;;;;;5023220;28;19943;-81
2022/11/02 04:53:51;;;;;;;;;;;10.40;99.90;;;;;;5017462;28;19928;-80
2022/11/02 04:56:16;;;;;;;;;;;10.40;99.90;;;;;;5031585;28;19932;-79
2022/11/02 04:58:42;;;;;;;;;;;11.00;99.90;;;;;;5011942;28;19961;-80
2022/11/02 05:01:10;;;;;;;;;;;11.40;99.90;;;;;;5021696;28;19925;-81
2022/11/02 05:03:36;;;;;;;;;;;10.30;99.90;;;;;;5028071;28;20323;-78
2022/11/02 05:06:01;;;;;;;;;;;10.30;99.90;;;;;;5031726;28;19932;-80
2022/11/02 05:08:27;;;;;;;;;;;11.00;99.90;;;;;;5024209;28;19926;-79
2022/11/02 05:10:53;;;;;;;;;;;10.50;99.90;;;;;;5018144;28;19925;-78
2022/11/02 05:13:19;;;;;;;;;;;10.30;99.90;;;;;;5013840;28;19929;-80
2022/11/02 05:15:44;;;;;;;;;;;10.30;99.90;;;;;;5020400;28;19947;-78
2022/11/02 05:18:10;;;;;;;;;;;10.30;99.90;;;;;;5034830;28;19928;-80
2022/11/02 05:20:35;;;;;;;;;;;10.30;99.90;;;;;;5021616;28;19928;-78
2022/11/02 05:23:01;;;;;;;;;;;10.30;99.90;;;;;;5021561;28;19922;-78
2022/11/02 05:25:26;;;;;;;;;;;10.30;99.90;;;;;;5021509;28;19921;-79
2022/11/02 05:27:52;;;;;;;;;;;10.30;99.90;;;;;;5019496;28;19976;-79
2022/11/02 05:30:17;;;;;;;;;;;10.30;99.90;;;;;;5020514;28;19981;-78
2022/11/02 05:32:43;;;;;;;;;;;10.30;99.90;;;;;;5019750;28;19964;-79
2022/11/02 05:35:08;;;;;;;;;;;10.80;99.90;;;;;;5020140;28;19921;-79
2022/11/02 05:37:34;;;;;;;;;;;10.30;99.90;;;;;;5019959;28;19933;-80
2022/11/02 05:39:59;;;;;;;;;;;11.30;99.90;;;;;;5012737;28;19921;-80
2022/11/02 05:42:25;;;;;;;;;;;10.50;99.90;;;;;;5022400;28;19927;-80
2022/11/02 05:44:50;;;;;;;;;;;11.40;99.90;;;;;;5021848;28;19921;-80
2022/11/02 05:47:16;;;;;;;;;;;10.30;99.90;;;;;;5014928;28;19928;-79
2022/11/02 05:49:41;;;;;;;;;;;10.40;99.90;;;;;;5022104;28;19925;-78
2022/11/02 05:52:07;;;;;;;;;;;10.30;99.90;;;;;;5015002;28;19922;-78
2022/11/02 05:54:32;;;;;;;;;;;10.30;99.90;;;;;;5010807;28;19929;-80
2022/11/02 05:56:58;;;;;;;;;;;10.30;99.90;;;;;;5020400;28;19928;-82
2022/11/02 05:59:23;;;;;;;;;;;10.30;99.90;;;;;;5022126;28;20352;-78
2022/11/02 06:01:49;;;;;;;;;;;10.30;99.90;;;;;;5012317;28;19921;-79
2022/11/02 06:04:14;;;;;;;;;;;10.20;99.90;;;;;;5006258;28;20331;-79
2022/11/02 06:06:40;;;;;;;;;;;10.30;99.90;;;;;;5021225;28;19968;-79
2022/11/02 06:09:05;;;;;;;;;;;10.40;99.90;;;;;;5024779;28;19922;-78
2022/11/02 06:11:31;;;;;;;;;;;10.40;99.90;;;;;;5027719;28;19921;-79
2022/11/02 06:13:56;;;;;;;;;;;11.00;99.90;;;;;;5034331;28;19973;-80
2022/11/02 06:16:22;;;;;;;;;;;10.50;99.90;;;;;;5024098;28;19928;-78
2022/11/02 06:18:47;;;;;;;;;;;10.30;99.90;;;;;;5029817;28;19922;-80
2022/11/02 06:21:14;;;;;;;;;;;10.30;99.90;;;;;;5019078;28;19944;-78
2022/11/02 06:23:41;;;;;;;;;;;10.30;99.90;;;;;;5021815;28;19921;-81
2022/11/02 06:26:08;;;;;;;;;;;10.30;99.90;;;;;;5022110;28;19933;-79
2022/11/02 06:28:33;;;;;;;;;;;10.40;99.90;;;;;;5027206;28;19971;-79
2022/11/02 06:30:59;;;;;;;;;;;10.40;99.90;;;;;;5025873;28;19932;-80
2022/11/02 06:33:25;;;;;;;;;;;11.40;99.90;;;;;;5033154;28;19992;-81
2022/11/02 06:35:51;;;;;;;;;;;11.30;99.90;;;;;;5031234;28;19921;-79
2022/11/02 06:38:17;;;;;;;;;;;10.60;99.90;;;;;;5024253;28;19921;-78
2022/11/02 06:40:43;;;;;;;;;;;10.50;99.90;;;;;;5029613;28;19906;-82
2022/11/02 06:43:08;;;;;;;;;;;11.60;99.90;;;;;;5032825;28;19925;-80
2022/11/02 06:45:34;;;;;;;;;;;10.50;99.90;;;;;;5035570;28;19920;-78
2022/11/02 06:47:59;;;;;;;;;;;10.50;99.90;;;;;;5038116;28;19984;-80
2022/11/02 06:50:25;;;;;;;;;;;11.10;99.90;;;;;;5031806;28;19922;-80
2022/11/02 06:52:50;;;;;;;;;;;10.50;99.90;;;;;;5039596;28;19921;-80
2022/11/02 06:55:17;;;;;;;;;;;10.90;99.90;;;;;;5027662;28;19925;-79
2022/11/02 06:57:43;;;;;;;;;;;11.10;99.90;;;;;;5021668;28;19921;-79
2022/11/02 07:00:11;;;;;;;;;;;10.50;99.90;;;;;;5017646;28;19925;-80
2022/11/02 07:02:36;;;;;;;;;;;10.50;99.90;;;;;;5015830;28;19944;-82
2022/11/02 07:05:02;;;;;;;;;;;11.50;99.90;;;;;;5035929;28;19921;-81
2022/11/02 07:07:27;;;;;;;;;;;10.60;99.90;;;;;;5015529;28;19932;-81
2022/11/02 07:09:53;;;;;;;;;;;10.60;99.90;;;;;;5019886;28;19922;-81
2022/11/02 07:12:18;;;;;;;;;;;10.70;99.90;;;;;;5022070;28;20069;-81
2022/11/02 07:14:44;;;;;;;;;;;10.70;99.90;;;;;;5024785;28;19976;-79
2022/11/02 07:17:10;;;;;;;;;;;11.20;99.90;;;;;;5023908;28;19905;-81
2022/11/02 07:19:35;;;;;;;;;;;10.80;99.90;;;;;;5023990;28;19921;-82
2022/11/02 07:22:01;;;;;;;;;;;11.00;99.90;;;;;;5026628;28;19948;-79
2022/11/02 07:24:26;;;;;;;;;;;10.90;99.90;;;;;;4994281;28;19929;-80
2022/11/02 07:26:52;;;;;;;;;;;10.90;99.90;;;;;;5017810;28;20028;-80
2022/11/02 07:29:17;;;;;;;;;;;10.90;99.90;;;;;;5020951;28;20292;-81
2022/11/02 07:31:43;;;;;;;;;;;11.90;99.90;;;;;;5018098;28;19925;-81
2022/11/02 07:34:09;;;;;;;;;;;10.90;99.90;;;;;;5017621;28;20020;-79
2022/11/02 07:36:35;;;;;;;;;;;10.80;99.90;;;;;;5016507;28;19928;-81
2022/11/02 07:39:00;;;;;;;;;;;10.80;99.90;;;;;;5009942;28;19921;-81
2022/11/02 07:41:26;;;;;;;;;;;10.80;99.90;;;;;;5003514;28;19910;-81
2022/11/02 07:43:51;;;;;;;;;;;10.80;99.90;;;;;;5010461;28;19932;-81
2022/11/02 07:46:17;;;;;;;;;;;11.50;99.90;;;;;;5014741;28;19925;-79
2022/11/02 07:48:43;;;;;;;;;;;10.90;99.90;;;;;;5016041;28;20342;-82
2022/11/02 07:51:10;;;;;;;;;;;10.70;99.90;;;;;;4999622;28;20438;-80
2022/11/02 07:53:36;;;;;;;;;;;11.50;99.90;;;;;;5016209;28;19956;-82
2022/11/02 07:56:04;;;;;;;;;;;11.30;99.90;;;;;;5017465;28;19921;-81
2022/11/02 07:58:29;;;;;;;;;;;10.60;99.90;;;;;;5014192;28;19921;-81
2022/11/02 08:00:59;;;;;;;;;;;11.60;99.90;;;;;;5017043;28;19984;-81
2022/11/02 08:03:24;;;;;;;;;;;10.60;99.90;;;;;;5016492;28;19921;-79
2022/11/02 08:05:50;;;;;;;;;;;10.60;99.90;;;;;;5017157;28;20269;-79
2022/11/02 08:08:20;;;;;;;;;;;10.50;99.90;;;;;;5017716;28;19928;-80
2022/11/02 08:10:47;;;;;;;;;;;10.60;99.90;;;;;;5010217;28;19917;-82
2022/11/02 08:13:26;;;;;;;;;;;10.60;99.90;;;;;;5021404;28;19925;-80
2022/11/02 08:15:52;;;;;;;;;;;10.70;99.90;;;;;;5022067;28;20383;-80
2022/11/02 08:18:22;;;;;;;;;;;10.70;99.90;;;;;;5017522;28;19921;-84
2022/11/02 08:20:47;;;;;;;;;;;10.80;99.90;;;;;;5002049;28;19921;-81
2022/11/02 08:23:14;;;;;;;;;;;10.90;99.90;;;;;;5025429;28;20008;-82
2022/11/02 08:25:40;;;;;;;;;;;11.10;99.90;;;;;;5014741;28;19921;-80
2022/11/02 08:28:06;;;;;;;;;;;11.20;99.90;;;;;;5030087;28;19997;-81
2022/11/02 08:30:32;;;;;;;;;;;11.30;99.90;;;;;;5031308;28;19929;-81
2022/11/02 08:33:05;;;;;;;;;;;11.50;99.90;;;;;;5028116;28;20012;-81
2022/11/02 08:35:31;;;;;;;;;;;11.60;99.90;;;;;;5024380;28;19921;-81
2022/11/02 08:37:58;;;;;;;;;;;12.20;99.90;;;;;;5025498;28;19925;-80
2022/11/02 08:40:24;;;;;;;;;;;11.70;99.90;;;;;;5015191;28;19921;-80
2022/11/02 08:42:56;;;;;;;;;;;11.90;99.90;;;;;;5024770;28;19921;-79
2022/11/02 08:45:22;;;;;;;;;;;12.10;99.90;;;;;;5023703;28;19967;-80
2022/11/02 08:47:47;;;;;;;;;;;12.20;99.90;;;;;;5028723;28;19906;-79
2022/11/02 08:50:13;;;;;;;;;;;12.40;99.90;;;;;;5037498;28;19917;-80
2022/11/02 08:52:39;;;;;;;;;;;12.20;99.90;;;;;;5044685;28;19921;-79
2022/11/02 08:55:05;;;;;;;;;;;12.30;99.90;;;;;;5046202;28;19972;-78
2022/11/02 08:57:31;;;;;;;;;;;12.40;99.90;;;;;;5038675;28;19948;-78
2022/11/02 08:59:58;;;;;;;;;;;12.50;99.90;;;;;;5036708;28;19905;-78
2022/11/02 09:02:24;;;;;;;;;;;12.60;99.90;;;;;;5042050;28;19983;-77
2022/11/02 09:04:51;;;;;;;;;;;12.70;99.90;;;;;;5034035;28;19932;-78
2022/11/02 09:07:17;;;;;;;;;;;12.90;99.90;;;;;;5039542;28;19932;-78
2022/11/02 09:09:43;;;;;;;;;;;13.00;99.90;;;;;;5040142;28;19925;-79
2022/11/02 09:12:08;;;;;;;;;;;13.20;99.90;;;;;;5066643;28;19968;-78
2022/11/02 09:14:34;;;;;;;;;;;13.20;99.90;;;;;;5028359;28;19905;-80
2022/11/02 09:16:59;;;;;;;;;;;13.40;99.90;;;;;;5047656;23;20652;-70
2022/11/02 09:19:25;;;;;;;;;;;13.50;99.90;;;;;;5009378;28;19968;-69
2022/11/02 09:21:50;;;;;;;;;;;13.70;99.90;;;;;;5002888;28;19976;-69
2022/11/02 09:24:16;;;;;;;;;;;14.00;99.90;;;;;;5009801;28;19921;-69
2022/11/02 09:26:41;;;;;;;;;;;13.80;99.90;;;;;;5010403;28;19921;-70
2022/11/02 09:29:07;;;;;;;;;;;13.90;99.90;;;;;;5017454;28;19984;-70
2022/11/02 09:31:32;;;;;;;;;;;13.80;99.90;;;;;;4995093;28;20259;-68
2022/11/02 09:33:58;;;;;;;;;;;13.70;99.90;;;;;;5013459;28;19922;-69
2022/11/02 09:36:23;;;;;;;;;;;13.80;99.90;;;;;;5014937;28;20214;-69
2022/11/02 09:38:49;;;;;;;;;;;13.90;99.90;;;;;;5019360;28;19921;-69
2022/11/02 09:41:35;;;;;;;;;;;14.00;99.90;;;;;;5016092;28;20340;-69
2022/11/02 09:44:03;;;;;;;;;;;14.10;99.90;;;;;;5014479;28;19943;-70
2022/11/02 09:46:29;;;;;;;;;;;14.30;99.90;;;;;;5018626;28;19921;-70
2022/11/02 09:48:54;;;;;;;;;;;14.30;99.90;;;;;;5017579;28;19921;-69
2022/11/02 09:51:21;;;;;;;;;;;14.20;99.90;;;;;;5020101;28;20039;-69
2022/11/02 09:53:57;;;;;;;;;;;14.00;99.90;;;;;;5004954;28;19921;-69
2022/11/02 09:56:23;;;;;;;;;;;13.70;99.90;;;;;;5010895;28;19929;-70
2022/11/02 09:58:56;;;;;;;;;;;13.70;99.90;;;;;;4995712;28;19921;-70
2022/11/02 10:01:33;;;;;;;;;;;13.50;99.90;;;;;;4996849;28;19977;-70
2022/11/02 10:04:25;;;;;;;;;;;13.50;99.90;;;;;;4996074;28;19922;-68
2022/11/02 10:06:56;;;;;;;;;;;13.60;99.90;;;;;;4962835;28;20387;-69
2022/11/02 10:09:25;;;;;;;;;;;14.00;99.90;;;;;;4990187;28;19933;-69
2022/11/02 10:12:03;;;;;;;;;;;14.30;99.90;;;;;;4996426;28;20379;-68
2022/11/02 10:14:36;;;;;;;;;;;14.50;99.90;;;;;;4991704;28;19928;-69
2022/11/02 10:17:11;;;;;;;;;;;14.70;99.90;;;;;;4989769;28;20427;-70
2022/11/02 10:19:40;;;;;;;;;;;15.00;99.90;;;;;;4995087;28;19976;-70
2022/11/02 10:22:09;;;;;;;;;;;15.30;99.90;;;;;;4992238;28;19922;-69
2022/11/02 10:24:41;;;;;;;;;;;15.40;99.90;;;;;;4993498;28;19972;-69
2022/11/02 10:27:15;;;;;;;;;;;15.20;99.90;;;;;;4992895;28;20012;-69
2022/11/02 10:29:44;;;;;;;;;;;14.90;99.90;;;;;;4992048;28;19921;-69
2022/11/02 10:32:11;;;;;;;;;;;14.50;99.90;;;;;;4992314;28;19921;-69
2022/11/02 10:34:36;;;;;;;;;;;14.00;99.90;;;;;;4989294;28;19932;-70
2022/11/02 10:37:08;;;;;;;;;;;13.90;99.90;;;;;;4992494;28;20353;-70
2022/11/02 10:39:52;;;;;;;;;;;13.30;99.90;;;;;;4996756;28;20003;-70
2022/11/02 10:42:30;;;;;;;;;;;13.10;99.90;;;;;;4989441;28;20048;-70
2022/11/02 10:45:05;;;;;;;;;;;13.10;99.90;;;;;;5006298;28;19928;-69
2022/11/02 10:47:36;;;;;;;;;;;12.90;99.90;;;;;;4994126;28;19921;-72
2022/11/02 10:50:17;;;;;;;;;;;12.90;99.90;;;;;;4992650;28;20013;-69
2022/11/02 10:52:44;;;;;;;;;;;12.80;99.90;;;;;;4990057;28;20374;-68
2022/11/02 10:55:18;;;;;;;;;;;12.70;99.90;;;;;;4983645;28;19957;-68
2022/11/02 10:57:44;;;;;;;;;;;12.70;99.90;;;;;;4985821;28;19928;-68
2022/11/02 11:00:24;;;;;;;;;;;12.70;99.90;;;;;;4973260;28;19921;-69
2022/11/02 11:03:03;;;;;;;;;;;12.90;99.90;;;;;;4980546;28;19931;-69
2022/11/02 11:05:29;;;;;;;;;;;13.00;99.90;;;;;;4988062;28;19921;-70
2022/11/02 11:07:54;;;;;;;;;;;13.10;99.90;;;;;;4982558;28;20388;-68
2022/11/02 11:10:22;;;;;;;;;;;13.30;99.90;;;;;;4985453;28;19922;-70
2022/11/02 11:12:48;;;;;;;;;;;13.40;99.90;;;;;;4992782;28;19936;-71
2022/11/02 11:15:29;;;;;;;;;;;13.40;99.90;;;;;;4990157;28;20292;-68
2022/11/02 11:17:54;;;;;;;;;;;13.50;99.90;;;;;;4991310;28;19929;-69
2022/11/02 11:20:31;;;;;;;;;;;13.60;99.90;;;;;;4988665;28;20543;-71
2022/11/02 11:23:20;;;;;;;;;;;13.50;99.90;;;;;;4989393;28;19922;-69
2022/11/02 11:25:54;;;;;;;;;;;13.50;99.90;;;;;;4976720;28;19984;-70
2022/11/02 11:28:22;;;;;;;;;;;13.60;99.90;;;;;;4999528;28;19922;-71
2022/11/02 11:30:59;;;;;;;;;;;13.70;99.90;;;;;;4989853;28;19930;-70
2022/11/02 11:33:25;;;;;;;;;;;13.80;99.90;;;;;;4989225;28;19922;-71
2022/11/02 11:35:51;;;;;;;;;;;13.90;99.90;;;;;;4982162;28;19921;-71
2022/11/02 11:38:21;;;;;;;;;;;14.10;99.90;;;;;;4990915;28;19928;-72
2022/11/02 11:40:52;;;;;;;;;;;14.20;99.90;;;;;;4980647;28;20012;-70
2022/11/02 11:43:19;;;;;;;;;;;14.20;99.90;;;;;;4992760;28;19937;-70
2022/11/02 11:45:55;;;;;;;;;;;14.30;99.90;;;;;;4996414;28;19975;-70
2022/11/02 11:48:28;;;;;;;;;;;14.40;99.90;;;;;;4991812;28;19956;-70
2022/11/02 11:50:54;;;;;;;;;;;14.40;99.90;;;;;;4992884;28;19926;-70
2022/11/02 11:53:23;;;;;;;;;;;14.30;99.90;;;;;;4991028;28;20303;-72
2022/11/02 11:55:50;;;;;;;;;;;14.30;99.90;;;;;;4994654;28;19968;-70
2022/11/02 11:58:16;;;;;;;;;;;14.20;99.90;;;;;;4993399;28;19922;-70
2022/11/02 12:00:41;;;;;;;;;;;14.10;99.90;;;;;;4993306;28;19921;-70
2022/11/02 12:03:09;;;;;;;;;;;14.10;99.90;;;;;;4991029;28;19925;-70
2022/11/02 12:05:48;;;;;;;;;;;14.00;99.90;;;;;;4991808;28;20116;-70
2022/11/02 12:08:36;;;;;;;;;;;14.00;99.90;;;;;;4987826;28;19930;-70
2022/11/02 12:11:16;;;;;;;;;;;14.00;99.90;;;;;;4981778;28;19922;-70
2022/11/02 12:13:54;;;;;;;;;;;14.00;99.90;;;;;;4989062;28;20638;-70
2022/11/02 12:16:25;;;;;;;;;;;14.00;99.90;;;;;;4982638;28;19922;-70
2022/11/02 12:19:02;;;;;;;;;;;13.90;99.90;;;;;;4974364;28;19922;-69
2022/11/02 12:21:46;;;;;;;;;;;13.80;99.90;;;;;;4981312;28;19922;-69
2022/11/02 12:24:12;;;;;;;;;;;13.80;99.90;;;;;;4966556;28;20017;-69
2022/11/02 12:26:46;;;;;;;;;;;13.80;99.90;;;;;;4971359;28;20009;-68
2022/11/02 12:29:11;;;;;;;;;;;13.70;99.90;;;;;;4974453;28;20012;-69
2022/11/02 12:31:43;;;;;;;;;;;13.70;99.90;;;;;;4976827;28;20009;-69
2022/11/02 12:34:25;;;;;;;;;;;13.70;99.90;;;;;;4978000;28;19930;-69
2022/11/02 12:36:54;;;;;;;;;;;13.70;99.90;;;;;;4954374;28;19933;-71
2022/11/02 12:39:38;;;;;;;;;;;13.60;99.90;;;;;;4975557;28;19928;-71
2022/11/02 12:42:15;;;;;;;;;;;13.60;99.90;;;;;;4973064;28;19965;-70
2022/11/02 12:45:03;;;;;;;;;;;13.70;99.90;;;;;;4970937;28;19929;-71
2022/11/02 12:47:29;;;;;;;;;;;13.70;99.90;;;;;;4969344;28;19964;-70
2022/11/02 12:50:07;;;;;;;;;;;13.70;99.90;;;;;;4971369;28;20367;-70
2022/11/02 12:52:39;;;;;;;;;;;13.70;99.90;;;;;;4951028;28;20372;-71
2022/11/02 12:55:06;;;;;;;;;;;13.60;99.90;;;;;;4973163;28;20013;-69
2022/11/02 12:57:35;;;;;;;;;;;13.60;99.90;;;;;;4976550;28;19930;-71
2022/11/02 13:00:03;;;;;;;;;;;13.60;99.90;;;;;;4975492;28;20333;-70
2022/11/02 13:02:31;;;;;;;;;;;13.50;99.90;;;;;;4973529;28;19958;-70
2022/11/02 13:05:01;;;;;;;;;;;13.60;99.90;;;;;;4975078;28;20433;-69
2022/11/02 13:07:37;;;;;;;;;;;13.70;99.90;;;;;;4973082;28;19922;-70
2022/11/02 13:10:13;;;;;;;;;;;13.50;99.90;;;;;;4972230;28;20013;-70
2022/11/02 13:12:39;;;;;;;;;;;13.60;99.90;;;;;;4969926;28;19926;-70
2022/11/02 13:15:06;;;;;;;;;;;13.60;99.90;;;;;;4977726;28;20024;-70
2022/11/02 13:17:35;;;;;;;;;;;13.60;99.90;;;;;;4980493;28;19929;-70
2022/11/02 13:20:06;;;;;;;;;;;13.60;99.90;;;;;;4969621;28;20040;-70
2022/11/02 13:22:37;;;;;;;;;;;13.60;99.90;;;;;;4968573;28;19930;-70
2022/11/02 13:25:13;;;;;;;;;;;13.60;99.90;;;;;;4969059;28;19922;-71
2022/11/02 13:27:49;;;;;;;;;;;13.60;99.90;;;;;;4970658;28;19930;-70
2022/11/02 13:30:16;;;;;;;;;;;13.60;99.90;;;;;;4985119;28;19929;-70
2022/11/02 13:32:47;;;;;;;;;;;13.60;99.90;;;;;;4972303;28;20008;-71
2022/11/02 13:35:31;;;;;;;;;;;13.90;99.90;;;;;;4970401;28;20004;-71
2022/11/02 13:38:04;;;;;;;;;;;13.60;99.90;;;;;;4974290;28;20731;-71
2022/11/02 13:40:35;;;;;;;;;;;13.50;99.90;;;;;;4976084;28;19922;-71
2022/11/02 13:43:19;;;;;;;;;;;13.50;99.90;;;;;;4975169;28;20435;-71
2022/11/02 13:45:51;;;;;;;;;;;13.50;99.90;;;;;;4972483;28;19984;-72
2022/11/02 13:48:23;;;;;;;;;;;13.50;99.90;;;;;;4972626;28;20394;-70
2022/11/02 13:50:52;;;;;;;;;;;13.50;99.90;;;;;;4972552;28;20380;-70
2022/11/02 13:53:20;;;;;;;;;;;13.40;99.90;;;;;;4972809;28;20323;-70
2022/11/02 13:55:53;;;;;;;;;;;13.50;99.90;;;;;;4967834;28;19937;-70
2022/11/02 13:58:26;;;;;;;;;;;13.50;99.90;;;;;;4971680;28;19973;-70
2022/11/02 14:00:54;;;;;;;;;;;13.40;99.90;;;;;;4970582;28;19938;-71
2022/11/02 14:03:28;;;;;;;;;;;13.40;99.90;;;;;;4972439;28;20016;-71
2022/11/02 14:05:58;;;;;;;;;;;13.40;99.90;;;;;;4971381;28;19922;-71
2022/11/02 14:08:35;;;;;;;;;;;13.40;99.90;;;;;;4971425;28;19926;-70
2022/11/02 14:11:05;;;;;;;;;;;13.40;99.90;;;;;;4974103;28;19992;-70
2022/11/02 14:13:49;;;;;;;;;;;13.40;99.90;;;;;;4969745;28;20279;-71
2022/11/02 14:16:38;;;;;;;;;;;13.40;99.90;;;;;;4979217;28;19922;-71
2022/11/02 14:19:13;;;;;;;;;;;13.40;99.90;;;;;;4986073;28;19918;-71
2022/11/02 14:21:39;;;;;;;;;;;13.50;99.90;;;;;;4976817;28;19922;-71
2022/11/02 14:24:24;;;;;;;;;;;13.50;99.90;;;;;;4976830;28;19922;-71
2022/11/02 14:26:54;;;;;;;;;;;13.40;99.90;;;;;;4978966;28;19922;-71
2022/11/02 14:29:40;;;;;;;;;;;13.40;99.90;;;;;;4974759;28;20465;-72
2022/11/02 14:32:09;;;;;;;;;;;13.40;99.90;;;;;;4957699;28;19932;-70
2022/11/02 14:34:50;;;;;;;;;;;13.40;99.90;;;;;;4957350;28;19945;-71
2022/11/02 14:37:27;;;;;;;;;;;13.40;99.90;;;;;;4984085;28;19968;-71
2022/11/02 14:40:07;;;;;;;;;;;13.40;99.90;;;;;;4973551;28;20418;-70